sensor_id;sensor_type;location;lat;lon;timestamp;pressure;altitude;pressure_sealevel;temperature;humidity
9525;BME280;15940;48.734;9.112;2022-09-30T00:00:36;95683.34;;;8.94;81.43
9525;BME280;15940;48.734;9.112;2022-09-30T00:03:04;95679.88;;;8.99;80.85
9525;BME280;15940;48.734;9.112;2022-09-30T00:05:30;95678.72;;;8.83;80.69
9525;BME280;15940;48.734;9.112;2022-09-30T00:07:57;95681.38;;;8.94;81.60
9525;BME280;15940;48.734;9.112;2022-09-30T00:10:24;95674.47;;;8.99;81.55
9525;BME280;15940;48.734;9.112;2022-09-30T00:12:52;95673.44;;;9.07;81.08
9525;BME280;15940;48.734;9.112;2022-09-30T00:15:19;95676.66;;;9.11;80.67
9525;BME280;15940;48.734;9.112;2022-09-30T00:17:47;95682.25;;;9.19;80.59
9525;BME280;15940;48.734;9.112;2022-09-30T00:20:14;95678.34;;;9.14;80.48
9525;BME280;15940;48.734;9.112;2022-09-30T00:22:44;95684.75;;;9.11;80.35
9525;BME280;15940;48.734;9.112;2022-09-30T00:25:11;95691.13;;;9.08;80.59
9525;BME280;15940;48.734;9.112;2022-09-30T00:27:38;95685.72;;;9.08;81.17
9525;BME280;15940;48.734;9.112;2022-09-30T00:30:06;95685.50;;;9.06;81.26
9525;BME280;15940;48.734;9.112;2022-09-30T00:32:33;95689.41;;;9.11;80.95
9525;BME280;15940;48.734;9.112;2022-09-30T00:35:01;95685.47;;;9.12;81.13
9525;BME280;15940;48.734;9.112;2022-09-30T00:37:29;95694.81;;;9.11;81.07
9525;BME280;15940;48.734;9.112;2022-09-30T00:39:56;95694.28;;;9.18;81.16
9525;BME280;15940;48.734;9.112;2022-09-30T00:42:23;95705.09;;;9.18;80.78
9525;BME280;15940;48.734;9.112;2022-09-30T00:44:59;95698.94;;;9.23;80.92
9525;BME280;15940;48.734;9.112;2022-09-30T00:47:41;95698.66;;;9.32;80.58
9525;BME280;15940;48.734;9.112;2022-09-30T00:50:33;95700.63;;;9.32;80.38
9525;BME280;15940;48.734;9.112;2022-09-30T00:53:08;95693.53;;;9.29;80.72
9525;BME280;15940;48.734;9.112;2022-09-30T00:55:45;95694.72;;;9.28;80.26
9525;BME280;15940;48.734;9.112;2022-09-30T00:58:20;95694.78;;;9.16;80.63
9525;BME280;15940;48.734;9.112;2022-09-30T01:00:49;95699.22;;;9.14;81.43
9525;BME280;15940;48.734;9.112;2022-09-30T01:03:19;95698.50;;;9.13;81.64
9525;BME280;15940;48.734;9.112;2022-09-30T01:05:50;95690.13;;;9.17;81.56
9525;BME280;15940;48.734;9.112;2022-09-30T01:08:19;95691.84;;;9.14;81.66
9525;BME280;15940;48.734;9.112;2022-09-30T01:10:46;95689.88;;;9.15;81.56
9525;BME280;15940;48.734;9.112;2022-09-30T01:13:14;95691.84;;;9.14;81.94
9525;BME280;15940;48.734;9.112;2022-09-30T01:15:55;95696.50;;;9.20;81.63
9525;BME280;15940;48.734;9.112;2022-09-30T01:18:31;95694.28;;;9.24;81.47
9525;BME280;15940;48.734;9.112;2022-09-30T01:21:47;95706.78;;;9.27;81.35
9525;BME280;15940;48.734;9.112;2022-09-30T01:24:55;95708.00;;;9.31;81.14
9525;BME280;15940;48.734;9.112;2022-09-30T01:27:51;95710.47;;;9.29;81.35
9525;BME280;15940;48.734;9.112;2022-09-30T01:30:42;95714.91;;;9.21;81.06
9525;BME280;15940;48.734;9.112;2022-09-30T01:33:20;95706.88;;;9.10;81.04
9525;BME280;15940;48.734;9.112;2022-09-30T01:36:09;95700.72;;;9.04;82.07
9525;BME280;15940;48.734;9.112;2022-09-30T01:38:50;95701.69;;;9.12;82.10
9525;BME280;15940;48.734;9.112;2022-09-30T01:41:26;95710.53;;;9.12;82.44
9525;BME280;15940;48.734;9.112;2022-09-30T01:44:04;95700.91;;;9.23;81.83
9525;BME280;15940;48.734;9.112;2022-09-30T01:46:38;95697.72;;;9.19;81.54
9525;BME280;15940;48.734;9.112;2022-09-30T01:49:14;95698.72;;;9.21;81.68
9525;BME280;15940;48.734;9.112;2022-09-30T01:51:51;95702.16;;;9.16;81.42
9525;BME280;15940;48.734;9.112;2022-09-30T01:54:25;95705.63;;;9.00;81.02
9525;BME280;15940;48.734;9.112;2022-09-30T01:57:02;95712.53;;;8.95;82.34
9525;BME280;15940;48.734;9.112;2022-09-30T01:59:34;95714.53;;;8.83;81.79
9525;BME280;15940;48.734;9.112;2022-09-30T02:02:09;95712.81;;;8.80;81.89
9525;BME280;15940;48.734;9.112;2022-09-30T02:04:44;95721.69;;;8.75;83.05
9525;BME280;15940;48.734;9.112;2022-09-30T02:07:19;95723.41;;;8.62;82.51
9525;BME280;15940;48.734;9.112;2022-09-30T02:09:54;95728.84;;;8.45;82.88
9525;BME280;15940;48.734;9.112;2022-09-30T02:12:27;95725.41;;;8.55;83.81
9525;BME280;15940;48.734;9.112;2022-09-30T02:15:00;95728.81;;;8.56;84.09
9525;BME280;15940;48.734;9.112;2022-09-30T02:17:32;95728.56;;;8.65;83.93
9525;BME280;15940;48.734;9.112;2022-09-30T02:20:05;95726.84;;;8.73;83.38
9525;BME280;15940;48.734;9.112;2022-09-30T02:22:38;95729.00;;;8.80;83.66
9525;BME280;15940;48.734;9.112;2022-09-30T02:25:14;95732.94;;;8.85;83.49
9525;BME280;15940;48.734;9.112;2022-09-30T02:27:52;95730.50;;;8.81;83.40
9525;BME280;15940;48.734;9.112;2022-09-30T02:30:21;95732.44;;;8.86;83.48
9525;BME280;15940;48.734;9.112;2022-09-30T02:32:54;95734.69;;;8.77;82.59
9525;BME280;15940;48.734;9.112;2022-09-30T02:35:26;95731.94;;;8.94;82.87
9525;BME280;15940;48.734;9.112;2022-09-30T02:37:59;95739.06;;;8.97;83.02
9525;BME280;15940;48.734;9.112;2022-09-30T02:40:33;95745.22;;;8.92;83.18
9525;BME280;15940;48.734;9.112;2022-09-30T02:43:04;95739.31;;;8.93;83.15
9525;BME280;15940;48.734;9.112;2022-09-30T02:45:41;95741.03;;;8.96;82.62
9525;BME280;15940;48.734;9.112;2022-09-30T02:48:25;95741.75;;;9.02;82.53
9525;BME280;15940;48.734;9.112;2022-09-30T02:51:02;95742.44;;;9.08;82.12
9525;BME280;15940;48.734;9.112;2022-09-30T02:53:38;95750.06;;;9.15;82.29
9525;BME280;15940;48.734;9.112;2022-09-30T02:56:16;95748.84;;;9.11;82.12
9525;BME280;15940;48.734;9.112;2022-09-30T02:58:49;95751.78;;;9.07;82.02
9525;BME280;15940;48.734;9.112;2022-09-30T03:01:17;95752.28;;;9.11;81.92
9525;BME280;15940;48.734;9.112;2022-09-30T03:03:49;95756.47;;;9.07;81.80
9525;BME280;15940;48.734;9.112;2022-09-30T03:06:17;95755.50;;;8.99;82.28
9525;BME280;15940;48.734;9.112;2022-09-30T03:08:45;95759.91;;;8.96;82.70
9525;BME280;15940;48.734;9.112;2022-09-30T03:11:16;95757.47;;;8.98;82.55
9525;BME280;15940;48.734;9.112;2022-09-30T03:14:17;95762.59;;;9.07;81.98
9525;BME280;15940;48.734;9.112;2022-09-30T03:17:12;95756.91;;;9.16;81.57
9525;BME280;15940;48.734;9.112;2022-09-30T03:20:08;95763.56;;;9.15;81.51
9525;BME280;15940;48.734;9.112;2022-09-30T03:23:00;95777.31;;;9.18;81.13
9525;BME280;15940;48.734;9.112;2022-09-30T03:25:38;95779.53;;;9.13;81.18
9525;BME280;15940;48.734;9.112;2022-09-30T03:28:18;95775.41;;;9.01;81.48
9525;BME280;15940;48.734;9.112;2022-09-30T03:30:59;95778.06;;;9.12;81.49
9525;BME280;15940;48.734;9.112;2022-09-30T03:33:38;95779.53;;;9.08;81.28
9525;BME280;15940;48.734;9.112;2022-09-30T03:36:18;95783.75;;;8.92;81.61
9525;BME280;15940;48.734;9.112;2022-09-30T03:38:57;95789.88;;;8.98;81.69
9525;BME280;15940;48.734;9.112;2022-09-30T03:41:31;95786.69;;;8.94;81.79
9525;BME280;15940;48.734;9.112;2022-09-30T03:44:03;95787.69;;;8.91;82.02
9525;BME280;15940;48.734;9.112;2022-09-30T03:46:37;95791.59;;;8.96;81.62
9525;BME280;15940;48.734;9.112;2022-09-30T03:49:11;95788.63;;;8.99;81.78
9525;BME280;15940;48.734;9.112;2022-09-30T03:51:41;95788.63;;;9.05;81.32
9525;BME280;15940;48.734;9.112;2022-09-30T03:54:09;95784.69;;;9.06;81.49
9525;BME280;15940;48.734;9.112;2022-09-30T03:56:38;95787.91;;;9.04;81.81
9525;BME280;15940;48.734;9.112;2022-09-30T03:59:15;95788.44;;;8.92;81.31
9525;BME280;15940;48.734;9.112;2022-09-30T04:01:43;95796.53;;;8.86;81.71
9525;BME280;15940;48.734;9.112;2022-09-30T04:04:10;95800.22;;;8.83;82.08
9525;BME280;15940;48.734;9.112;2022-09-30T04:06:38;95802.66;;;8.92;82.09
9525;BME280;15940;48.734;9.112;2022-09-30T04:09:06;95811.22;;;8.91;82.04
9525;BME280;15940;48.734;9.112;2022-09-30T04:11:33;95816.41;;;8.83;81.70
9525;BME280;15940;48.734;9.112;2022-09-30T04:14:00;95817.88;;;8.84;82.14
9525;BME280;15940;48.734;9.112;2022-09-30T04:16:28;95821.56;;;8.81;81.83
9525;BME280;15940;48.734;9.112;2022-09-30T04:18:55;95824.03;;;8.73;82.04
9525;BME280;15940;48.734;9.112;2022-09-30T04:21:23;95828.19;;;8.74;82.71
9525;BME280;15940;48.734;9.112;2022-09-30T04:23:50;95825.97;;;8.67;83.08
9525;BME280;15940;48.734;9.112;2022-09-30T04:26:19;95816.16;;;8.58;83.10
9525;BME280;15940;48.734;9.112;2022-09-30T04:28:46;95813.22;;;8.62;83.43
9525;BME280;15940;48.734;9.112;2022-09-30T04:31:14;95821.31;;;8.68;83.38
9525;BME280;15940;48.734;9.112;2022-09-30T04:33:41;95820.09;;;8.63;83.10
9525;BME280;15940;48.734;9.112;2022-09-30T04:36:10;95812.25;;;8.65;83.17
9525;BME280;15940;48.734;9.112;2022-09-30T04:38:37;95818.38;;;8.60;82.71
9525;BME280;15940;48.734;9.112;2022-09-30T04:41:05;95820.09;;;8.63;83.50
9525;BME280;15940;48.734;9.112;2022-09-30T04:43:34;95820.59;;;8.67;82.91
9525;BME280;15940;48.734;9.112;2022-09-30T04:46:01;95818.38;;;8.60;82.60
9525;BME280;15940;48.734;9.112;2022-09-30T04:48:29;95821.81;;;8.55;82.83
9525;BME280;15940;48.734;9.112;2022-09-30T04:50:57;95840.94;;;8.51;82.94
9525;BME280;15940;48.734;9.112;2022-09-30T04:53:25;95840.47;;;8.47;82.82
9525;BME280;15940;48.734;9.112;2022-09-30T04:55:58;95847.31;;;8.48;82.66
9525;BME280;15940;48.734;9.112;2022-09-30T04:58:25;95853.44;;;8.43;82.93
9525;BME280;15940;48.734;9.112;2022-09-30T05:01:01;95862.78;;;8.37;83.10
9525;BME280;15940;48.734;9.112;2022-09-30T05:03:28;95851.72;;;8.35;83.49
9525;BME280;15940;48.734;9.112;2022-09-30T05:05:55;95861.03;;;8.39;82.83
9525;BME280;15940;48.734;9.112;2022-09-30T05:08:22;95861.97;;;8.30;83.32
9525;BME280;15940;48.734;9.112;2022-09-30T05:10:54;95865.22;;;8.35;83.41
9525;BME280;15940;48.734;9.112;2022-09-30T05:13:22;95870.88;;;8.37;82.84
9525;BME280;15940;48.734;9.112;2022-09-30T05:15:50;95870.81;;;8.31;83.36
9525;BME280;15940;48.734;9.112;2022-09-30T05:18:19;95867.88;;;8.29;83.30
9525;BME280;15940;48.734;9.112;2022-09-30T05:20:49;95871.06;;;8.27;83.24
9525;BME280;15940;48.734;9.112;2022-09-30T05:23:17;95874.50;;;8.28;83.43
9525;BME280;15940;48.734;9.112;2022-09-30T05:25:44;95871.78;;;8.28;83.16
9525;BME280;15940;48.734;9.112;2022-09-30T05:28:12;95864.94;;;8.27;83.52
9525;BME280;15940;48.734;9.112;2022-09-30T05:30:40;95877.50;;;8.36;83.00
9525;BME280;15940;48.734;9.112;2022-09-30T05:33:08;95868.59;;;8.24;83.11
9525;BME280;15940;48.734;9.112;2022-09-30T05:35:39;95869.59;;;8.26;83.48
9525;BME280;15940;48.734;9.112;2022-09-30T05:38:07;95877.69;;;8.26;83.70
9525;BME280;15940;48.734;9.112;2022-09-30T05:40:37;95879.88;;;8.34;83.62
9525;BME280;15940;48.734;9.112;2022-09-30T05:43:05;95880.44;;;8.43;83.16
9525;BME280;15940;48.734;9.112;2022-09-30T05:45:33;95884.88;;;8.46;83.13
9525;BME280;15940;48.734;9.112;2022-09-30T05:48:01;95876.53;;;8.55;82.78
9525;BME280;15940;48.734;9.112;2022-09-30T05:50:28;95881.19;;;8.61;82.77
9525;BME280;15940;48.734;9.112;2022-09-30T05:52:56;95886.13;;;8.68;82.58
9525;BME280;15940;48.734;9.112;2022-09-30T05:55:23;95885.13;;;8.71;82.53
9525;BME280;15940;48.734;9.112;2022-09-30T05:57:51;95880.72;;;8.73;82.68
9525;BME280;15940;48.734;9.112;2022-09-30T06:00:18;95889.31;;;8.77;82.22
9525;BME280;15940;48.734;9.112;2022-09-30T06:02:50;95894.47;;;8.75;81.92
9525;BME280;15940;48.734;9.112;2022-09-30T06:05:17;95901.59;;;8.78;82.26
9525;BME280;15940;48.734;9.112;2022-09-30T06:07:46;95897.91;;;8.76;82.65
9525;BME280;15940;48.734;9.112;2022-09-30T06:10:16;95909.22;;;8.91;82.75
9525;BME280;15940;48.734;9.112;2022-09-30T06:12:43;95901.59;;;9.12;82.31
9525;BME280;15940;48.734;9.112;2022-09-30T06:15:10;95910.91;;;9.05;81.63
9525;BME280;15940;48.734;9.112;2022-09-30T06:17:37;95907.25;;;9.20;82.20
9525;BME280;15940;48.734;9.112;2022-09-30T06:20:08;95910.16;;;9.27;81.38
9525;BME280;15940;48.734;9.112;2022-09-30T06:22:35;95912.88;;;9.33;82.05
9525;BME280;15940;48.734;9.112;2022-09-30T06:25:03;95913.34;;;9.37;81.59
9525;BME280;15940;48.734;9.112;2022-09-30T06:27:33;95916.56;;;9.41;80.73
9525;BME280;15940;48.734;9.112;2022-09-30T06:30:02;95923.66;;;9.44;81.59
9525;BME280;15940;48.734;9.112;2022-09-30T06:32:29;95931.03;;;9.49;81.78
9525;BME280;15940;48.734;9.112;2022-09-30T06:34:56;95934.69;;;9.63;81.46
9525;BME280;15940;48.734;9.112;2022-09-30T06:37:24;95940.84;;;9.69;80.92
9525;BME280;15940;48.734;9.112;2022-09-30T06:39:51;95940.59;;;9.61;80.86
9525;BME280;15940;48.734;9.112;2022-09-30T06:42:18;95933.44;;;9.81;80.30
9525;BME280;15940;48.734;9.112;2022-09-30T06:44:46;95950.41;;;9.81;80.33
9525;BME280;15940;48.734;9.112;2022-09-30T06:47:13;95942.28;;;9.81;80.48
9525;BME280;15940;48.734;9.112;2022-09-30T06:49:40;95943.28;;;9.78;79.89
9525;BME280;15940;48.734;9.112;2022-09-30T06:52:08;95942.28;;;9.76;80.03
9525;BME280;15940;48.734;9.112;2022-09-30T06:54:37;95949.16;;;9.88;80.52
9525;BME280;15940;48.734;9.112;2022-09-30T06:57:06;95953.56;;;9.85;80.04
9525;BME280;15940;48.734;9.112;2022-09-30T06:59:33;95954.56;;;9.82;80.29
9525;BME280;15940;48.734;9.112;2022-09-30T07:02:01;95959.72;;;9.91;80.37
9525;BME280;15940;48.734;9.112;2022-09-30T07:04:28;95958.25;;;9.85;80.10
9525;BME280;15940;48.734;9.112;2022-09-30T07:06:55;95967.34;;;9.82;80.53
9525;BME280;15940;48.734;9.112;2022-09-30T07:09:22;95966.13;;;9.83;80.92
9525;BME280;15940;48.734;9.112;2022-09-30T07:11:50;95965.38;;;9.82;80.40
9525;BME280;15940;48.734;9.112;2022-09-30T07:14:17;95974.00;;;9.81;80.87
9525;BME280;15940;48.734;9.112;2022-09-30T07:16:44;95971.53;;;9.83;80.93
9525;BME280;15940;48.734;9.112;2022-09-30T07:19:12;95976.91;;;9.94;80.89
9525;BME280;15940;48.734;9.112;2022-09-30T07:21:39;95979.13;;;9.95;80.52
9525;BME280;15940;48.734;9.112;2022-09-30T07:24:06;95984.28;;;9.93;80.51
9525;BME280;15940;48.734;9.112;2022-09-30T07:26:34;95982.09;;;9.92;80.28
9525;BME280;15940;48.734;9.112;2022-09-30T07:29:01;95989.97;;;9.84;80.45
9525;BME280;15940;48.734;9.112;2022-09-30T07:31:28;95989.50;;;9.86;80.91
9525;BME280;15940;48.734;9.112;2022-09-30T07:33:55;95999.53;;;9.85;80.67
9525;BME280;15940;48.734;9.112;2022-09-30T07:36:24;95997.59;;;9.86;80.58
9525;BME280;15940;48.734;9.112;2022-09-30T07:38:55;95994.91;;;9.80;80.89
9525;BME280;15940;48.734;9.112;2022-09-30T07:41:25;95994.63;;;9.84;81.49
9525;BME280;15940;48.734;9.112;2022-09-30T07:43:55;95999.31;;;9.83;80.56
9525;BME280;15940;48.734;9.112;2022-09-30T07:46:27;96007.94;;;9.87;80.84
9525;BME280;15940;48.734;9.112;2022-09-30T07:48:57;96008.91;;;9.84;80.97
9525;BME280;15940;48.734;9.112;2022-09-30T07:51:29;96008.16;;;9.89;80.45
9525;BME280;15940;48.734;9.112;2022-09-30T07:53:59;96009.91;;;9.87;80.30
9525;BME280;15940;48.734;9.112;2022-09-30T07:56:28;96012.81;;;9.94;80.28
9525;BME280;15940;48.734;9.112;2022-09-30T07:58:57;96016.28;;;9.95;80.13
9525;BME280;15940;48.734;9.112;2022-09-30T08:01:25;96022.41;;;10.01;80.42
9525;BME280;15940;48.734;9.112;2022-09-30T08:03:55;96023.88;;;10.08;80.34
9525;BME280;15940;48.734;9.112;2022-09-30T08:06:23;96034.94;;;10.15;80.15
9525;BME280;15940;48.734;9.112;2022-09-30T08:08:55;96035.16;;;10.12;79.49
9525;BME280;15940;48.734;9.112;2022-09-30T08:11:23;96032.47;;;10.17;79.81
9525;BME280;15940;48.734;9.112;2022-09-30T08:13:50;96033.47;;;10.09;78.93
9525;BME280;15940;48.734;9.112;2022-09-30T08:16:19;96048.22;;;10.08;79.74
9525;BME280;15940;48.734;9.112;2022-09-30T08:18:46;96052.41;;;10.09;79.85
9525;BME280;15940;48.734;9.112;2022-09-30T08:21:13;96043.78;;;10.16;80.19
9525;BME280;15940;48.734;9.112;2022-09-30T08:23:40;96055.34;;;10.16;79.56
9525;BME280;15940;48.734;9.112;2022-09-30T08:26:11;96051.16;;;10.15;80.02
9525;BME280;15940;48.734;9.112;2022-09-30T08:28:40;96047.22;;;10.22;79.44
9525;BME280;15940;48.734;9.112;2022-09-30T08:31:10;96053.09;;;10.37;79.48
9525;BME280;15940;48.734;9.112;2022-09-30T08:33:38;96057.75;;;10.48;78.70
9525;BME280;15940;48.734;9.112;2022-09-30T08:36:08;96055.50;;;10.57;78.69
9525;BME280;15940;48.734;9.112;2022-09-30T08:38:35;96052.25;;;10.65;78.21
9525;BME280;15940;48.734;9.112;2022-09-30T08:41:16;96054.94;;;10.76;78.40
9525;BME280;15940;48.734;9.112;2022-09-30T08:44:01;96056.59;;;10.90;77.66
9525;BME280;15940;48.734;9.112;2022-09-30T08:46:41;96054.22;;;11.16;77.08
9525;BME280;15940;48.734;9.112;2022-09-30T08:49:31;96061.00;;;11.34;75.00
9525;BME280;15940;48.734;9.112;2022-09-30T08:52:03;96060.03;;;11.37;74.91
9525;BME280;15940;48.734;9.112;2022-09-30T08:54:34;96070.84;;;11.73;74.71
9525;BME280;15940;48.734;9.112;2022-09-30T08:57:03;96059.31;;;11.97;74.21
9525;BME280;15940;48.734;9.112;2022-09-30T08:59:35;96066.41;;;12.30;71.26
9525;BME280;15940;48.734;9.112;2022-09-30T09:02:17;96064.50;;;12.68;69.97
9525;BME280;15940;48.734;9.112;2022-09-30T09:04:48;96063.63;;;12.98;68.63
9525;BME280;15940;48.734;9.112;2022-09-30T09:07:33;96062.25;;;13.10;69.78
9525;BME280;15940;48.734;9.112;2022-09-30T09:10:18;96065.44;;;13.33;68.98
9525;BME280;15940;48.734;9.112;2022-09-30T09:12:55;96061.97;;;13.64;69.59
9525;BME280;15940;48.734;9.112;2022-09-30T09:15:44;96063.50;;;13.79;67.65
9525;BME280;15940;48.734;9.112;2022-09-30T09:18:32;96061.13;;;14.01;65.78
9525;BME280;15940;48.734;9.112;2022-09-30T09:21:15;96065.56;;;14.05;65.85
9525;BME280;15940;48.734;9.112;2022-09-30T09:23:45;96060.41;;;14.01;65.17
9525;BME280;15940;48.734;9.112;2022-09-30T09:26:14;96064.59;;;14.02;64.97
9525;BME280;15940;48.734;9.112;2022-09-30T09:28:51;96063.03;;;14.07;65.14
9525;BME280;15940;48.734;9.112;2022-09-30T09:31:24;96069.03;;;14.18;65.85
9525;BME280;15940;48.734;9.112;2022-09-30T09:33:59;96075.97;;;14.59;65.08
9525;BME280;15940;48.734;9.112;2022-09-30T09:36:40;96067.06;;;14.85;61.76
9525;BME280;15940;48.734;9.112;2022-09-30T09:39:40;96059.47;;;15.38;59.19
9525;BME280;15940;48.734;9.112;2022-09-30T09:42:37;96077.06;;;15.64;58.84
9525;BME280;15940;48.734;9.112;2022-09-30T09:45:16;96079.66;;;15.35;59.01
9525;BME280;15940;48.734;9.112;2022-09-30T09:47:50;96078.00;;;15.53;57.05
9525;BME280;15940;48.734;9.112;2022-09-30T09:50:23;96084.03;;;16.14;57.44
9525;BME280;15940;48.734;9.112;2022-09-30T09:53:27;96075.72;;;15.78;55.98
9525;BME280;15940;48.734;9.112;2022-09-30T09:56:00;96079.91;;;15.79;58.00
9525;BME280;15940;48.734;9.112;2022-09-30T09:58:27;96086.03;;;15.72;57.53
9525;BME280;15940;48.734;9.112;2022-09-30T10:01:08;96081.03;;;15.63;59.26
9525;BME280;15940;48.734;9.112;2022-09-30T10:04:12;96085.03;;;15.62;58.58
9525;BME280;15940;48.734;9.112;2022-09-30T10:06:47;96081.63;;;15.69;58.54
9525;BME280;15940;48.734;9.112;2022-09-30T10:09:29;96093.97;;;15.83;59.91
9525;BME280;15940;48.734;9.112;2022-09-30T10:12:27;96092.50;;;15.82;59.08
9525;BME280;15940;48.734;9.112;2022-09-30T10:15:19;96085.34;;;15.58;56.31
9525;BME280;15940;48.734;9.112;2022-09-30T10:17:54;96092.88;;;15.31;57.88
9525;BME280;15940;48.734;9.112;2022-09-30T10:20:29;96097.09;;;15.53;59.57
9525;BME280;15940;48.734;9.112;2022-09-30T10:23:06;96101.97;;;15.47;58.56
9525;BME280;15940;48.734;9.112;2022-09-30T10:25:33;96090.97;;;14.92;58.38
9525;BME280;15940;48.734;9.112;2022-09-30T10:28:08;96094.31;;;14.98;61.17
9525;BME280;15940;48.734;9.112;2022-09-30T10:30:48;96086.41;;;15.21;61.26
9525;BME280;15940;48.734;9.112;2022-09-30T10:33:27;96105.13;;;15.38;59.19
9525;BME280;15940;48.734;9.112;2022-09-30T10:36:11;96102.91;;;15.84;59.46
9525;BME280;15940;48.734;9.112;2022-09-30T10:38:56;96110.16;;;16.23;57.18
9525;BME280;15940;48.734;9.112;2022-09-30T10:41:27;96097.22;;;16.52;54.19
9525;BME280;15940;48.734;9.112;2022-09-30T10:43:56;96110.50;;;16.76;55.21
9525;BME280;15940;48.734;9.112;2022-09-30T10:46:28;96108.19;;;16.80;53.65
9525;BME280;15940;48.734;9.112;2022-09-30T10:48:58;96110.91;;;16.80;55.58
9525;BME280;15940;48.734;9.112;2022-09-30T10:51:29;96115.25;;;16.76;53.12
9525;BME280;15940;48.734;9.112;2022-09-30T10:53:59;96108.59;;;16.92;54.26
9525;BME280;15940;48.734;9.112;2022-09-30T10:56:43;96102.53;;;16.78;53.09
9525;BME280;15940;48.734;9.112;2022-09-30T10:59:32;96097.78;;;16.58;55.82
9525;BME280;15940;48.734;9.112;2022-09-30T11:02:16;96105.38;;;16.44;53.32
9525;BME280;15940;48.734;9.112;2022-09-30T11:04:54;96098.69;;;16.53;52.96
9525;BME280;15940;48.734;9.112;2022-09-30T11:07:28;96106.91;;;16.81;52.40
9525;BME280;15940;48.734;9.112;2022-09-30T11:10:02;96107.44;;;16.80;51.16
9525;BME280;15940;48.734;9.112;2022-09-30T11:12:39;96101.19;;;16.72;50.98
9525;BME280;15940;48.734;9.112;2022-09-30T11:15:14;96102.47;;;16.71;51.40
9525;BME280;15940;48.734;9.112;2022-09-30T11:17:51;96101.19;;;16.72;51.33
9525;BME280;15940;48.734;9.112;2022-09-30T11:20:26;96100.47;;;16.71;51.22
9525;BME280;15940;48.734;9.112;2022-09-30T11:23:01;96091.59;;;16.78;50.25
9525;BME280;15940;48.734;9.112;2022-09-30T11:25:38;96100.63;;;17.02;50.85
9525;BME280;15940;48.734;9.112;2022-09-30T11:28:35;96101.91;;;17.01;50.84
9525;BME280;15940;48.734;9.112;2022-09-30T11:31:16;96106.38;;;17.27;51.12
9525;BME280;15940;48.734;9.112;2022-09-30T11:33:59;96107.25;;;17.22;49.09
9525;BME280;15940;48.734;9.112;2022-09-30T11:36:36;96113.03;;;17.03;50.74
9525;BME280;15940;48.734;9.112;2022-09-30T11:42:13;96105.03;;;17.12;51.48
9525;BME280;15940;48.734;9.112;2022-09-30T11:44:44;96103.84;;;17.29;50.79
9525;BME280;15940;48.734;9.112;2022-09-30T11:47:48;96112.97;;;17.31;50.49
9525;BME280;15940;48.734;9.112;2022-09-30T11:50:40;96104.84;;;17.10;52.11
9525;BME280;15940;48.734;9.112;2022-09-30T11:53:21;96105.22;;;17.07;49.16
9525;BME280;15940;48.734;9.112;2022-09-30T11:56:10;96098.50;;;17.16;51.59
9525;BME280;15940;48.734;9.112;2022-09-30T11:58:42;96107.25;;;17.22;48.92
9525;BME280;15940;48.734;9.112;2022-09-30T12:01:20;96107.50;;;17.39;49.39
9525;BME280;15940;48.734;9.112;2022-09-30T12:03:58;96107.69;;;17.41;47.04
9525;BME280;15940;48.734;9.112;2022-09-30T12:06:32;96101.47;;;17.33;47.49
9525;BME280;15940;48.734;9.112;2022-09-30T12:09:10;96104.94;;;17.26;45.71
9525;BME280;15940;48.734;9.112;2022-09-30T12:11:48;96105.09;;;17.28;47.74
9525;BME280;15940;48.734;9.112;2022-09-30T12:14:24;96111.31;;;17.28;48.14
9525;BME280;15940;48.734;9.112;2022-09-30T12:16:52;96106.41;;;17.42;46.55
9525;BME280;15940;48.734;9.112;2022-09-30T12:19:28;96111.22;;;17.57;47.60
9525;BME280;15940;48.734;9.112;2022-09-30T12:22:03;96104.94;;;17.33;46.32
9525;BME280;15940;48.734;9.112;2022-09-30T12:24:35;96110.50;;;17.56;46.88
9525;BME280;15940;48.734;9.112;2022-09-30T12:27:04;96108.56;;;17.87;47.49
9525;BME280;15940;48.734;9.112;2022-09-30T12:29:38;96100.34;;;17.87;44.82
9525;BME280;15940;48.734;9.112;2022-09-30T12:33:11;96101.88;;;17.52;44.12
9525;BME280;15940;48.734;9.112;2022-09-30T12:36:27;96102.44;;;16.99;47.99
9525;BME280;15940;48.734;9.112;2022-09-30T12:39:49;96102.69;;;16.52;47.31
9525;BME280;15940;48.734;9.112;2022-09-30T12:42:54;96109.28;;;16.85;47.79
9525;BME280;15940;48.734;9.112;2022-09-30T12:46:03;96100.16;;;16.82;46.01
9525;BME280;15940;48.734;9.112;2022-09-30T12:48:37;96102.94;;;16.62;47.94
9525;BME280;15940;48.734;9.112;2022-09-30T12:51:07;96105.72;;;16.41;47.24
9525;BME280;15940;48.734;9.112;2022-09-30T12:53:36;96106.81;;;16.17;49.49
9525;BME280;15940;48.734;9.112;2022-09-30T12:56:08;96104.22;;;15.90;47.69
9525;BME280;15940;48.734;9.112;2022-09-30T12:58:42;96101.47;;;15.69;47.63
9525;BME280;15940;48.734;9.112;2022-09-30T13:01:14;96095.53;;;15.58;48.32
9525;BME280;15940;48.734;9.112;2022-09-30T13:03:47;96099.88;;;15.40;47.50
9525;BME280;15940;48.734;9.112;2022-09-30T13:06:16;96109.47;;;15.20;47.31
9525;BME280;15940;48.734;9.112;2022-09-30T13:09:18;96112.22;;;15.20;49.63
9525;BME280;15940;48.734;9.112;2022-09-30T13:11:47;96111.34;;;15.25;49.92
9525;BME280;15940;48.734;9.112;2022-09-30T13:14:40;96109.59;;;15.14;49.32
9525;BME280;15940;48.734;9.112;2022-09-30T13:17:26;96112.53;;;15.17;49.66
9525;BME280;15940;48.734;9.112;2022-09-30T13:19:54;96104.38;;;15.17;50.54
9525;BME280;15940;48.734;9.112;2022-09-30T13:22:58;96107.88;;;15.25;51.14
9525;BME280;15940;48.734;9.112;2022-09-30T13:25:25;96108.72;;;15.33;50.81
9525;BME280;15940;48.734;9.112;2022-09-30T13:28:25;96115.19;;;15.43;50.65
9525;BME280;15940;48.734;9.112;2022-09-30T13:31:13;96112.41;;;15.35;49.23
9525;BME280;15940;48.734;9.112;2022-09-30T13:33:46;96115.63;;;15.34;49.10
9525;BME280;15940;48.734;9.112;2022-09-30T13:36:29;96117.63;;;15.47;51.15
9525;BME280;15940;48.734;9.112;2022-09-30T13:39:22;96118.28;;;15.26;48.25
9525;BME280;15940;48.734;9.112;2022-09-30T13:42:11;96116.94;;;15.20;51.50
9525;BME280;15940;48.734;9.112;2022-09-30T13:44:58;96122.81;;;15.10;51.67
9525;BME280;15940;48.734;9.112;2022-09-30T13:47:31;96122.50;;;15.14;50.28
9525;BME280;15940;48.734;9.112;2022-09-30T13:50:05;96126.59;;;15.21;52.51
9525;BME280;15940;48.734;9.112;2022-09-30T13:52:38;96121.84;;;15.21;49.80
9525;BME280;15940;48.734;9.112;2022-09-30T13:55:14;96119.97;;;15.29;47.12
9525;BME280;15940;48.734;9.112;2022-09-30T13:57:53;96116.53;;;15.50;50.64
9525;BME280;15940;48.734;9.112;2022-09-30T14:00:42;96124.38;;;15.53;48.04